sensor_id;sensor_type;location;lat;lon;timestamp;P1;durP1;ratioP1;P2;durP2;ratioP2
6133;SDS011;3098;42.678;23.364;2023-07-16T00:01:49;12.98;;;6.95;;
6133;SDS011;3098;42.678;23.364;2023-07-16T00:04:16;11.07;;;7.05;;
6133;SDS011;3098;42.678;23.364;2023-07-16T00:06:43;14.68;;;7.43;;
6133;SDS011;3098;42.678;23.364;2023-07-16T00:09:10;10.23;;;6.68;;
6133;SDS011;3098;42.678;23.364;2023-07-16T00:11:37;10.18;;;6.78;;
6133;SDS011;3098;42.678;23.364;2023-07-16T00:14:04;11.43;;;7.05;;
6133;SDS011;3098;42.678;23.364;2023-07-16T00:16:32;13.30;;;6.32;;
6133;SDS011;3098;42.678;23.364;2023-07-16T00:18:59;11.35;;;6.57;;
6133;SDS011;3098;42.678;23.364;2023-07-16T00:21:26;14.50;;;6.15;;
6133;SDS011;3098;42.678;23.364;2023-07-16T00:23:52;10.02;;;6.57;;
6133;SDS011;3098;42.678;23.364;2023-07-16T00:26:21;13.45;;;6.68;;
6133;SDS011;3098;42.678;23.364;2023-07-16T00:28:47;14.55;;;6.57;;
6133;SDS011;3098;42.678;23.364;2023-07-16T00:31:14;13.02;;;6.28;;
6133;SDS011;3098;42.678;23.364;2023-07-16T00:33:43;10.55;;;6.40;;
6133;SDS011;3098;42.678;23.364;2023-07-16T00:36:09;11.90;;;7.00;;
6133;SDS011;3098;42.678;23.364;2023-07-16T00:38:36;10.10;;;6.45;;
6133;SDS011;3098;42.678;23.364;2023-07-16T00:41:05;9.35;;;6.15;;
6133;SDS011;3098;42.678;23.364;2023-07-16T00:43:31;11.82;;;5.97;;
6133;SDS011;3098;42.678;23.364;2023-07-16T00:45:58;10.13;;;5.85;;
6133;SDS011;3098;42.678;23.364;2023-07-16T00:48:26;9.07;;;5.88;;
6133;SDS011;3098;42.678;23.364;2023-07-16T00:50:54;11.95;;;5.82;;
6133;SDS011;3098;42.678;23.364;2023-07-16T00:53:22;15.35;;;6.30;;
6133;SDS011;3098;42.678;23.364;2023-07-16T00:55:49;11.75;;;5.85;;
6133;SDS011;3098;42.678;23.364;2023-07-16T00:58:16;9.00;;;5.30;;
6133;SDS011;3098;42.678;23.364;2023-07-16T01:00:43;7.93;;;4.90;;
6133;SDS011;3098;42.678;23.364;2023-07-16T01:03:11;9.77;;;5.47;;
6133;SDS011;3098;42.678;23.364;2023-07-16T01:05:40;8.57;;;5.55;;
6133;SDS011;3098;42.678;23.364;2023-07-16T01:08:16;8.10;;;5.13;;
6133;SDS011;3098;42.678;23.364;2023-07-16T01:10:48;10.65;;;5.80;;
6133;SDS011;3098;42.678;23.364;2023-07-16T01:13:15;10.27;;;5.18;;
6133;SDS011;3098;42.678;23.364;2023-07-16T01:15:43;9.82;;;5.25;;
6133;SDS011;3098;42.678;23.364;2023-07-16T01:18:10;10.52;;;5.38;;
6133;SDS011;3098;42.678;23.364;2023-07-16T01:20:37;12.20;;;5.47;;
6133;SDS011;3098;42.678;23.364;2023-07-16T01:26:32;9.35;;;5.22;;
6133;SDS011;3098;42.678;23.364;2023-07-16T01:29:17;9.38;;;5.43;;
6133;SDS011;3098;42.678;23.364;2023-07-16T01:31:47;9.63;;;5.53;;
6133;SDS011;3098;42.678;23.364;2023-07-16T01:34:17;9.68;;;5.10;;
6133;SDS011;3098;42.678;23.364;2023-07-16T01:36:45;10.30;;;5.38;;
6133;SDS011;3098;42.678;23.364;2023-07-16T01:39:13;11.85;;;4.70;;
6133;SDS011;3098;42.678;23.364;2023-07-16T01:41:40;7.95;;;5.20;;
6133;SDS011;3098;42.678;23.364;2023-07-16T01:44:07;14.82;;;6.18;;
6133;SDS011;3098;42.678;23.364;2023-07-16T01:46:35;9.55;;;5.72;;
6133;SDS011;3098;42.678;23.364;2023-07-16T01:49:02;8.13;;;5.28;;
6133;SDS011;3098;42.678;23.364;2023-07-16T01:51:29;9.52;;;5.32;;
6133;SDS011;3098;42.678;23.364;2023-07-16T01:53:56;12.02;;;5.70;;
6133;SDS011;3098;42.678;23.364;2023-07-16T01:56:23;11.57;;;4.90;;
6133;SDS011;3098;42.678;23.364;2023-07-16T01:58:50;7.28;;;4.60;;
6133;SDS011;3098;42.678;23.364;2023-07-16T02:01:17;12.88;;;4.80;;
6133;SDS011;3098;42.678;23.364;2023-07-16T02:03:45;10.75;;;5.25;;
6133;SDS011;3098;42.678;23.364;2023-07-16T02:06:12;7.78;;;4.57;;
6133;SDS011;3098;42.678;23.364;2023-07-16T02:08:39;9.40;;;5.53;;
6133;SDS011;3098;42.678;23.364;2023-07-16T02:11:06;11.65;;;6.38;;
6133;SDS011;3098;42.678;23.364;2023-07-16T02:13:33;11.50;;;6.93;;
6133;SDS011;3098;42.678;23.364;2023-07-16T02:16:00;14.27;;;6.55;;
6133;SDS011;3098;42.678;23.364;2023-07-16T02:18:27;11.52;;;6.63;;
6133;SDS011;3098;42.678;23.364;2023-07-16T02:20:55;12.57;;;6.82;;
6133;SDS011;3098;42.678;23.364;2023-07-16T02:23:22;13.80;;;6.82;;
6133;SDS011;3098;42.678;23.364;2023-07-16T02:25:49;10.27;;;6.45;;
6133;SDS011;3098;42.678;23.364;2023-07-16T02:28:16;9.52;;;5.93;;
6133;SDS011;3098;42.678;23.364;2023-07-16T02:30:43;11.07;;;4.65;;
6133;SDS011;3098;42.678;23.364;2023-07-16T02:33:10;9.02;;;4.45;;
6133;SDS011;3098;42.678;23.364;2023-07-16T02:35:36;6.13;;;4.22;;
6133;SDS011;3098;42.678;23.364;2023-07-16T02:38:04;9.20;;;4.90;;
6133;SDS011;3098;42.678;23.364;2023-07-16T02:40:31;7.75;;;4.32;;
6133;SDS011;3098;42.678;23.364;2023-07-16T02:42:58;6.97;;;4.15;;
6133;SDS011;3098;42.678;23.364;2023-07-16T02:45:25;7.60;;;4.13;;
6133;SDS011;3098;42.678;23.364;2023-07-16T02:47:52;8.32;;;4.40;;
6133;SDS011;3098;42.678;23.364;2023-07-16T02:50:19;11.02;;;4.68;;
6133;SDS011;3098;42.678;23.364;2023-07-16T02:52:45;6.75;;;4.50;;
6133;SDS011;3098;42.678;23.364;2023-07-16T02:55:14;5.97;;;4.45;;
6133;SDS011;3098;42.678;23.364;2023-07-16T02:57:41;7.18;;;4.88;;
6133;SDS011;3098;42.678;23.364;2023-07-16T03:00:08;6.30;;;4.45;;
6133;SDS011;3098;42.678;23.364;2023-07-16T03:02:35;9.07;;;4.68;;
6133;SDS011;3098;42.678;23.364;2023-07-16T03:05:02;7.63;;;4.60;;
6133;SDS011;3098;42.678;23.364;2023-07-16T03:07:30;10.73;;;4.40;;
6133;SDS011;3098;42.678;23.364;2023-07-16T03:09:56;9.45;;;4.93;;
6133;SDS011;3098;42.678;23.364;2023-07-16T03:12:25;8.10;;;4.22;;
6133;SDS011;3098;42.678;23.364;2023-07-16T03:14:52;12.80;;;5.78;;
6133;SDS011;3098;42.678;23.364;2023-07-16T03:17:19;10.38;;;4.90;;
6133;SDS011;3098;42.678;23.364;2023-07-16T03:19:47;8.68;;;5.10;;
6133;SDS011;3098;42.678;23.364;2023-07-16T03:22:14;9.13;;;5.60;;
6133;SDS011;3098;42.678;23.364;2023-07-16T03:24:40;12.95;;;5.88;;
6133;SDS011;3098;42.678;23.364;2023-07-16T03:27:07;8.32;;;5.95;;
6133;SDS011;3098;42.678;23.364;2023-07-16T03:29:36;9.50;;;5.65;;
6133;SDS011;3098;42.678;23.364;2023-07-16T03:32:03;10.55;;;5.03;;
6133;SDS011;3098;42.678;23.364;2023-07-16T03:34:30;7.35;;;4.88;;
6133;SDS011;3098;42.678;23.364;2023-07-16T03:36:57;10.90;;;4.80;;
6133;SDS011;3098;42.678;23.364;2023-07-16T03:39:24;6.10;;;4.82;;
6133;SDS011;3098;42.678;23.364;2023-07-16T03:41:51;10.25;;;4.65;;
6133;SDS011;3098;42.678;23.364;2023-07-16T03:44:18;9.02;;;5.28;;
6133;SDS011;3098;42.678;23.364;2023-07-16T03:46:46;7.30;;;4.43;;
6133;SDS011;3098;42.678;23.364;2023-07-16T03:49:13;7.85;;;4.53;;
6133;SDS011;3098;42.678;23.364;2023-07-16T03:51:40;12.10;;;5.43;;
6133;SDS011;3098;42.678;23.364;2023-07-16T03:54:07;8.43;;;4.80;;
6133;SDS011;3098;42.678;23.364;2023-07-16T03:56:34;7.55;;;4.93;;
6133;SDS011;3098;42.678;23.364;2023-07-16T03:59:01;9.95;;;4.80;;
6133;SDS011;3098;42.678;23.364;2023-07-16T04:01:28;7.53;;;4.90;;
6133;SDS011;3098;42.678;23.364;2023-07-16T04:03:57;8.95;;;4.80;;
6133;SDS011;3098;42.678;23.364;2023-07-16T04:06:24;7.82;;;5.07;;
6133;SDS011;3098;42.678;23.364;2023-07-16T04:08:51;11.23;;;5.65;;
6133;SDS011;3098;42.678;23.364;2023-07-16T04:11:18;10.02;;;5.28;;
6133;SDS011;3098;42.678;23.364;2023-07-16T04:13:45;9.70;;;5.00;;
6133;SDS011;3098;42.678;23.364;2023-07-16T04:16:11;11.55;;;5.43;;
6133;SDS011;3098;42.678;23.364;2023-07-16T04:18:38;7.45;;;5.30;;
6133;SDS011;3098;42.678;23.364;2023-07-16T04:21:07;7.32;;;4.90;;
6133;SDS011;3098;42.678;23.364;2023-07-16T04:23:35;13.30;;;5.10;;
6133;SDS011;3098;42.678;23.364;2023-07-16T04:26:02;7.82;;;4.75;;
6133;SDS011;3098;42.678;23.364;2023-07-16T04:28:29;7.47;;;4.55;;
6133;SDS011;3098;42.678;23.364;2023-07-16T04:30:56;11.07;;;4.60;;
6133;SDS011;3098;42.678;23.364;2023-07-16T04:33:23;8.57;;;4.63;;
6133;SDS011;3098;42.678;23.364;2023-07-16T04:35:50;11.05;;;4.40;;
6133;SDS011;3098;42.678;23.364;2023-07-16T04:38:18;7.70;;;5.13;;
6133;SDS011;3098;42.678;23.364;2023-07-16T04:40:45;7.22;;;4.13;;
6133;SDS011;3098;42.678;23.364;2023-07-16T04:43:12;6.32;;;4.38;;
6133;SDS011;3098;42.678;23.364;2023-07-16T04:45:39;12.30;;;4.53;;
6133;SDS011;3098;42.678;23.364;2023-07-16T04:48:06;13.82;;;4.43;;
6133;SDS011;3098;42.678;23.364;2023-07-16T04:50:32;6.22;;;4.03;;
6133;SDS011;3098;42.678;23.364;2023-07-16T04:52:59;6.15;;;4.30;;
6133;SDS011;3098;42.678;23.364;2023-07-16T04:55:28;7.13;;;4.72;;
6133;SDS011;3098;42.678;23.364;2023-07-16T04:57:55;10.25;;;4.63;;
6133;SDS011;3098;42.678;23.364;2023-07-16T05:00:22;9.70;;;5.72;;
6133;SDS011;3098;42.678;23.364;2023-07-16T05:02:49;9.60;;;4.30;;
6133;SDS011;3098;42.678;23.364;2023-07-16T05:05:16;8.00;;;4.78;;
6133;SDS011;3098;42.678;23.364;2023-07-16T05:07:42;9.35;;;4.85;;
6133;SDS011;3098;42.678;23.364;2023-07-16T05:10:09;9.32;;;4.80;;
6133;SDS011;3098;42.678;23.364;2023-07-16T05:12:38;5.15;;;3.92;;
6133;SDS011;3098;42.678;23.364;2023-07-16T05:15:06;12.45;;;4.70;;
6133;SDS011;3098;42.678;23.364;2023-07-16T05:17:34;7.00;;;4.18;;
6133;SDS011;3098;42.678;23.364;2023-07-16T05:20:01;6.97;;;4.25;;
6133;SDS011;3098;42.678;23.364;2023-07-16T05:22:29;5.47;;;4.15;;
6133;SDS011;3098;42.678;23.364;2023-07-16T05:24:55;7.18;;;4.38;;
6133;SDS011;3098;42.678;23.364;2023-07-16T05:27:23;6.18;;;4.65;;
6133;SDS011;3098;42.678;23.364;2023-07-16T05:29:51;5.82;;;4.25;;
6133;SDS011;3098;42.678;23.364;2023-07-16T05:32:18;7.13;;;4.20;;
6133;SDS011;3098;42.678;23.364;2023-07-16T05:34:45;7.38;;;4.20;;
6133;SDS011;3098;42.678;23.364;2023-07-16T05:37:12;10.88;;;3.90;;
6133;SDS011;3098;42.678;23.364;2023-07-16T05:39:39;6.88;;;4.30;;
6133;SDS011;3098;42.678;23.364;2023-07-16T05:42:06;8.82;;;4.25;;
6133;SDS011;3098;42.678;23.364;2023-07-16T05:44:34;6.10;;;4.07;;
6133;SDS011;3098;42.678;23.364;2023-07-16T05:47:03;6.28;;;4.60;;
6133;SDS011;3098;42.678;23.364;2023-07-16T05:49:31;5.43;;;3.78;;
6133;SDS011;3098;42.678;23.364;2023-07-16T05:51:58;6.75;;;3.97;;
6133;SDS011;3098;42.678;23.364;2023-07-16T05:54:25;6.10;;;4.35;;
6133;SDS011;3098;42.678;23.364;2023-07-16T05:56:52;6.45;;;4.47;;
6133;SDS011;3098;42.678;23.364;2023-07-16T05:59:19;6.85;;;4.10;;
6133;SDS011;3098;42.678;23.364;2023-07-16T06:01:46;8.57;;;5.72;;
6133;SDS011;3098;42.678;23.364;2023-07-16T06:04:15;9.13;;;5.07;;
6133;SDS011;3098;42.678;23.364;2023-07-16T06:06:41;6.82;;;4.53;;
6133;SDS011;3098;42.678;23.364;2023-07-16T06:09:09;11.15;;;4.40;;
6133;SDS011;3098;42.678;23.364;2023-07-16T06:11:35;10.45;;;5.13;;
6133;SDS011;3098;42.678;23.364;2023-07-16T06:14:02;7.40;;;4.50;;
6133;SDS011;3098;42.678;23.364;2023-07-16T06:16:29;4.18;;;3.60;;
6133;SDS011;3098;42.678;23.364;2023-07-16T06:18:56;5.78;;;3.83;;
6133;SDS011;3098;42.678;23.364;2023-07-16T06:21:24;8.52;;;4.45;;
6133;SDS011;3098;42.678;23.364;2023-07-16T06:23:51;5.55;;;4.80;;
6133;SDS011;3098;42.678;23.364;2023-07-16T06:26:18;7.28;;;4.25;;
6133;SDS011;3098;42.678;23.364;2023-07-16T06:28:45;6.45;;;4.40;;
6133;SDS011;3098;42.678;23.364;2023-07-16T06:31:14;7.75;;;4.28;;
6133;SDS011;3098;42.678;23.364;2023-07-16T06:33:41;8.73;;;3.97;;
6133;SDS011;3098;42.678;23.364;2023-07-16T06:36:08;6.03;;;4.85;;
6133;SDS011;3098;42.678;23.364;2023-07-16T06:38:36;7.28;;;4.43;;
6133;SDS011;3098;42.678;23.364;2023-07-16T06:41:03;6.30;;;4.28;;
6133;SDS011;3098;42.678;23.364;2023-07-16T06:43:30;5.97;;;4.00;;
6133;SDS011;3098;42.678;23.364;2023-07-16T06:45:57;6.43;;;4.25;;
6133;SDS011;3098;42.678;23.364;2023-07-16T06:48:24;5.90;;;4.05;;
6133;SDS011;3098;42.678;23.364;2023-07-16T06:50:51;5.60;;;3.85;;
6133;SDS011;3098;42.678;23.364;2023-07-16T06:53:17;7.05;;;4.22;;
6133;SDS011;3098;42.678;23.364;2023-07-16T06:55:46;9.43;;;4.13;;
6133;SDS011;3098;42.678;23.364;2023-07-16T06:58:14;9.15;;;4.28;;
6133;SDS011;3098;42.678;23.364;2023-07-16T07:00:41;6.53;;;4.20;;
6133;SDS011;3098;42.678;23.364;2023-07-16T07:03:08;9.20;;;4.22;;
6133;SDS011;3098;42.678;23.364;2023-07-16T07:05:36;6.10;;;3.75;;
6133;SDS011;3098;42.678;23.364;2023-07-16T07:08:03;6.75;;;3.30;;
6133;SDS011;3098;42.678;23.364;2023-07-16T07:10:30;9.85;;;3.88;;
6133;SDS011;3098;42.678;23.364;2023-07-16T07:12:59;4.88;;;3.55;;
6133;SDS011;3098;42.678;23.364;2023-07-16T07:15:27;4.95;;;3.95;;
6133;SDS011;3098;42.678;23.364;2023-07-16T07:17:54;6.05;;;3.92;;
6133;SDS011;3098;42.678;23.364;2023-07-16T07:20:22;9.48;;;3.60;;
6133;SDS011;3098;42.678;23.364;2023-07-16T07:22:49;5.00;;;3.85;;
6133;SDS011;3098;42.678;23.364;2023-07-16T07:25:16;4.43;;;3.67;;
6133;SDS011;3098;42.678;23.364;2023-07-16T07:27:43;6.75;;;4.15;;
6133;SDS011;3098;42.678;23.364;2023-07-16T07:30:12;7.10;;;4.00;;
6133;SDS011;3098;42.678;23.364;2023-07-16T07:32:39;5.32;;;4.05;;
6133;SDS011;3098;42.678;23.364;2023-07-16T07:35:07;6.10;;;3.40;;
6133;SDS011;3098;42.678;23.364;2023-07-16T07:37:34;4.43;;;3.92;;
6133;SDS011;3098;42.678;23.364;2023-07-16T07:40:01;8.18;;;4.38;;
6133;SDS011;3098;42.678;23.364;2023-07-16T07:42:28;6.05;;;4.28;;
6133;SDS011;3098;42.678;23.364;2023-07-16T07:44:55;5.43;;;4.40;;
6133;SDS011;3098;42.678;23.364;2023-07-16T07:47:24;5.95;;;4.03;;
6133;SDS011;3098;42.678;23.364;2023-07-16T07:49:52;8.07;;;4.40;;
6133;SDS011;3098;42.678;23.364;2023-07-16T07:52:19;7.57;;;3.92;;
6133;SDS011;3098;42.678;23.364;2023-07-16T07:54:46;5.00;;;3.80;;
6133;SDS011;3098;42.678;23.364;2023-07-16T07:57:14;8.75;;;4.20;;
6133;SDS011;3098;42.678;23.364;2023-07-16T07:59:41;11.68;;;5.22;;
6133;SDS011;3098;42.678;23.364;2023-07-16T08:02:08;6.57;;;3.88;;
6133;SDS011;3098;42.678;23.364;2023-07-16T08:04:36;5.82;;;4.03;;
6133;SDS011;3098;42.678;23.364;2023-07-16T08:07:03;8.52;;;4.30;;
6133;SDS011;3098;42.678;23.364;2023-07-16T08:09:31;7.10;;;4.55;;
6133;SDS011;3098;42.678;23.364;2023-07-16T08:11:58;8.18;;;4.60;;
6133;SDS011;3098;42.678;23.364;2023-07-16T08:14:25;7.15;;;4.80;;
6133;SDS011;3098;42.678;23.364;2023-07-16T08:16:51;5.10;;;3.80;;
6133;SDS011;3098;42.678;23.364;2023-07-16T08:19:18;5.72;;;4.72;;
6133;SDS011;3098;42.678;23.364;2023-07-16T08:21:47;8.43;;;4.95;;
6133;SDS011;3098;42.678;23.364;2023-07-16T08:24:14;8.80;;;4.38;;
6133;SDS011;3098;42.678;23.364;2023-07-16T08:26:41;6.75;;;4.70;;
6133;SDS011;3098;42.678;23.364;2023-07-16T08:29:08;5.45;;;4.60;;
6133;SDS011;3098;42.678;23.364;2023-07-16T08:31:35;9.68;;;4.88;;
6133;SDS011;3098;42.678;23.364;2023-07-16T08:34:02;5.40;;;4.47;;
6133;SDS011;3098;42.678;23.364;2023-07-16T08:36:29;9.05;;;6.50;;
6133;SDS011;3098;42.678;23.364;2023-07-16T08:38:58;13.65;;;5.30;;
6133;SDS011;3098;42.678;23.364;2023-07-16T08:41:25;9.32;;;5.57;;
6133;SDS011;3098;42.678;23.364;2023-07-16T08:43:52;8.20;;;4.97;;
6133;SDS011;3098;42.678;23.364;2023-07-16T08:46:20;9.98;;;5.75;;
6133;SDS011;3098;42.678;23.364;2023-07-16T08:48:47;7.38;;;5.50;;
6133;SDS011;3098;42.678;23.364;2023-07-16T08:51:15;6.15;;;5.22;;
6133;SDS011;3098;42.678;23.364;2023-07-16T08:53:42;11.93;;;5.38;;
6133;SDS011;3098;42.678;23.364;2023-07-16T08:56:11;7.82;;;5.28;;
6133;SDS011;3098;42.678;23.364;2023-07-16T08:58:38;15.52;;;5.97;;
6133;SDS011;3098;42.678;23.364;2023-07-16T09:01:06;7.97;;;5.30;;
6133;SDS011;3098;42.678;23.364;2023-07-16T09:03:33;6.55;;;5.78;;
6133;SDS011;3098;42.678;23.364;2023-07-16T09:06:01;8.55;;;5.55;;
6133;SDS011;3098;42.678;23.364;2023-07-16T09:08:29;8.98;;;5.95;;
6133;SDS011;3098;42.678;23.364;2023-07-16T09:10:56;7.93;;;5.63;;
6133;SDS011;3098;42.678;23.364;2023-07-16T09:13:25;8.43;;;6.35;;
6133;SDS011;3098;42.678;23.364;2023-07-16T09:15:53;10.52;;;7.40;;
6133;SDS011;3098;42.678;23.364;2023-07-16T09:18:22;7.85;;;5.95;;
6133;SDS011;3098;42.678;23.364;2023-07-16T09:20:53;8.50;;;5.47;;
6133;SDS011;3098;42.678;23.364;2023-07-16T09:23:23;9.57;;;5.57;;
6133;SDS011;3098;42.678;23.364;2023-07-16T09:25:51;9.07;;;6.30;;
6133;SDS011;3098;42.678;23.364;2023-07-16T09:28:18;12.27;;;6.20;;
6133;SDS011;3098;42.678;23.364;2023-07-16T09:30:47;8.80;;;6.38;;
6133;SDS011;3098;42.678;23.364;2023-07-16T09:33:15;13.90;;;6.50;;
6133;SDS011;3098;42.678;23.364;2023-07-16T09:35:42;10.93;;;6.65;;
6133;SDS011;3098;42.678;23.364;2023-07-16T09:38:10;8.80;;;6.38;;
6133;SDS011;3098;42.678;23.364;2023-07-16T09:40:37;12.20;;;7.28;;
6133;SDS011;3098;42.678;23.364;2023-07-16T09:43:05;7.88;;;6.55;;
6133;SDS011;3098;42.678;23.364;2023-07-16T09:45:33;13.10;;;6.47;;
6133;SDS011;3098;42.678;23.364;2023-07-16T09:48:01;11.15;;;6.38;;
6133;SDS011;3098;42.678;23.364;2023-07-16T09:50:29;10.07;;;5.82;;
6133;SDS011;3098;42.678;23.364;2023-07-16T09:52:58;9.45;;;5.97;;
6133;SDS011;3098;42.678;23.364;2023-07-16T09:55:25;7.82;;;6.10;;
6133;SDS011;3098;42.678;23.364;2023-07-16T09:57:55;18.02;;;8.18;;
6133;SDS011;3098;42.678;23.364;2023-07-16T10:00:24;9.02;;;6.68;;
6133;SDS011;3098;42.678;23.364;2023-07-16T10:02:53;10.63;;;6.28;;
6133;SDS011;3098;42.678;23.364;2023-07-16T10:05:24;12.00;;;8.13;;
6133;SDS011;3098;42.678;23.364;2023-07-16T10:07:53;12.18;;;6.40;;
6133;SDS011;3098;42.678;23.364;2023-07-16T10:10:25;11.32;;;7.40;;
6133;SDS011;3098;42.678;23.364;2023-07-16T10:12:56;7.25;;;6.35;;
6133;SDS011;3098;42.678;23.364;2023-07-16T10:15:28;9.65;;;6.80;;
6133;SDS011;3098;42.678;23.364;2023-07-16T10:17:56;8.85;;;6.05;;
6133;SDS011;3098;42.678;23.364;2023-07-16T10:20:31;12.18;;;9.05;;
6133;SDS011;3098;42.678;23.364;2023-07-16T10:23:09;7.97;;;6.65;;
6133;SDS011;3098;42.678;23.364;2023-07-16T10:25:38;13.05;;;6.60;;
6133;SDS011;3098;42.678;23.364;2023-07-16T10:28:05;9.90;;;6.47;;
6133;SDS011;3098;42.678;23.364;2023-07-16T10:30:32;13.43;;;6.82;;
6133;SDS011;3098;42.678;23.364;2023-07-16T10:33:02;8.82;;;6.53;;
6133;SDS011;3098;42.678;23.364;2023-07-16T10:35:35;13.05;;;7.97;;
6133;SDS011;3098;42.678;23.364;2023-07-16T10:38:07;11.20;;;6.45;;
6133;SDS011;3098;42.678;23.364;2023-07-16T10:40:38;11.35;;;6.30;;
6133;SDS011;3098;42.678;23.364;2023-07-16T10:43:06;14.55;;;7.10;;
6133;SDS011;3098;42.678;23.364;2023-07-16T10:45:33;7.88;;;6.30;;
6133;SDS011;3098;42.678;23.364;2023-07-16T10:48:00;12.27;;;6.72;;
6133;SDS011;3098;42.678;23.364;2023-07-16T10:50:27;12.95;;;6.78;;
6133;SDS011;3098;42.678;23.364;2023-07-16T10:52:56;14.95;;;7.60;;
6133;SDS011;3098;42.678;23.364;2023-07-16T10:55:23;7.85;;;6.43;;
6133;SDS011;3098;42.678;23.364;2023-07-16T10:57:52;12.38;;;7.18;;
6133;SDS011;3098;42.678;23.364;2023-07-16T11:00:20;12.35;;;7.65;;
6133;SDS011;3098;42.678;23.364;2023-07-16T11:02:49;11.70;;;6.95;;
6133;SDS011;3098;42.678;23.364;2023-07-16T11:05:17;11.52;;;7.10;;
6133;SDS011;3098;42.678;23.364;2023-07-16T11:07:44;10.50;;;6.40;;
6133;SDS011;3098;42.678;23.364;2023-07-16T11:10:14;8.00;;;6.53;;
6133;SDS011;3098;42.678;23.364;2023-07-16T11:12:42;11.32;;;7.13;;
6133;SDS011;3098;42.678;23.364;2023-07-16T11:15:09;10.23;;;7.32;;
6133;SDS011;3098;42.678;23.364;2023-07-16T11:17:37;9.82;;;7.57;;
6133;SDS011;3098;42.678;23.364;2023-07-16T11:20:07;13.55;;;6.78;;
6133;SDS011;3098;42.678;23.364;2023-07-16T11:22:37;12.45;;;7.72;;
6133;SDS011;3098;42.678;23.364;2023-07-16T11:25:10;13.55;;;6.63;;
6133;SDS011;3098;42.678;23.364;2023-07-16T11:27:41;10.52;;;7.03;;
6133;SDS011;3098;42.678;23.364;2023-07-16T11:30:08;16.15;;;7.18;;
6133;SDS011;3098;42.678;23.364;2023-07-16T11:32:36;13.65;;;6.72;;
6133;SDS011;3098;42.678;23.364;2023-07-16T11:35:09;10.35;;;6.97;;
6133;SDS011;3098;42.678;23.364;2023-07-16T11:37:42;10.50;;;7.47;;
6133;SDS011;3098;42.678;23.364;2023-07-16T11:40:09;11.25;;;7.30;;
6133;SDS011;3098;42.678;23.364;2023-07-16T11:42:38;8.90;;;6.97;;
6133;SDS011;3098;42.678;23.364;2023-07-16T11:45:15;11.18;;;7.28;;
6133;SDS011;3098;42.678;23.364;2023-07-16T11:47:43;14.55;;;7.57;;
6133;SDS011;3098;42.678;23.364;2023-07-16T11:50:10;11.18;;;7.15;;
6133;SDS011;3098;42.678;23.364;2023-07-16T11:52:38;10.52;;;6.68;;
6133;SDS011;3098;42.678;23.364;2023-07-16T11:55:05;11.48;;;7.40;;
6133;SDS011;3098;42.678;23.364;2023-07-16T11:57:33;14.30;;;7.35;;
6133;SDS011;3098;42.678;23.364;2023-07-16T12:00:02;10.45;;;7.10;;
6133;SDS011;3098;42.678;23.364;2023-07-16T12:02:30;11.43;;;7.65;;
6133;SDS011;3098;42.678;23.364;2023-07-16T12:04:57;11.20;;;7.18;;
6133;SDS011;3098;42.678;23.364;2023-07-16T12:07:31;8.73;;;6.70;;
6133;SDS011;3098;42.678;23.364;2023-07-16T12:10:00;11.40;;;6.63;;
6133;SDS011;3098;42.678;23.364;2023-07-16T12:12:28;11.20;;;6.70;;
6133;SDS011;3098;42.678;23.364;2023-07-16T12:14:56;13.32;;;6.55;;
6133;SDS011;3098;42.678;23.364;2023-07-16T12:17:25;11.15;;;7.10;;
6133;SDS011;3098;42.678;23.364;2023-07-16T12:19:52;14.48;;;7.78;;
6133;SDS011;3098;42.678;23.364;2023-07-16T12:22:19;11.35;;;7.07;;
6133;SDS011;3098;42.678;23.364;2023-07-16T12:24:47;10.82;;;6.30;;
6133;SDS011;3098;42.678;23.364;2023-07-16T12:27:14;12.25;;;7.10;;
6133;SDS011;3098;42.678;23.364;2023-07-16T12:29:42;8.55;;;6.38;;
6133;SDS011;3098;42.678;23.364;2023-07-16T12:32:09;13.20;;;7.43;;
6133;SDS011;3098;42.678;23.364;2023-07-16T12:34:38;13.93;;;7.53;;
6133;SDS011;3098;42.678;23.364;2023-07-16T12:37:05;10.85;;;6.88;;
6133;SDS011;3098;42.678;23.364;2023-07-16T12:39:32;10.95;;;6.65;;
6133;SDS011;3098;42.678;23.364;2023-07-16T12:41:59;12.77;;;6.85;;
6133;SDS011;3098;42.678;23.364;2023-07-16T12:44:26;9.70;;;7.03;;
6133;SDS011;3098;42.678;23.364;2023-07-16T12:46:53;11.60;;;6.97;;
6133;SDS011;3098;42.678;23.364;2023-07-16T12:49:20;11.20;;;6.07;;
6133;SDS011;3098;42.678;23.364;2023-07-16T12:51:49;9.38;;;6.53;;
6133;SDS011;3098;42.678;23.364;2023-07-16T12:54:16;11.30;;;6.50;;
6133;SDS011;3098;42.678;23.364;2023-07-16T12:56:43;12.13;;;7.72;;
6133;SDS011;3098;42.678;23.364;2023-07-16T12:59:10;15.88;;;7.00;;
6133;SDS011;3098;42.678;23.364;2023-07-16T13:01:37;8.50;;;6.60;;
6133;SDS011;3098;42.678;23.364;2023-07-16T13:04:04;9.93;;;6.63;;
6133;SDS011;3098;42.678;23.364;2023-07-16T13:06:31;9.60;;;6.65;;
6133;SDS011;3098;42.678;23.364;2023-07-16T13:09:00;8.38;;;6.20;;
6133;SDS011;3098;42.678;23.364;2023-07-16T13:11:27;10.20;;;6.18;;
6133;SDS011;3098;42.678;23.364;2023-07-16T13:13:54;9.15;;;6.60;;
6133;SDS011;3098;42.678;23.364;2023-07-16T13:16:21;8.45;;;6.28;;
6133;SDS011;3098;42.678;23.364;2023-07-16T13:18:48;11.65;;;6.55;;
6133;SDS011;3098;42.678;23.364;2023-07-16T13:21:14;12.68;;;6.43;;
6133;SDS011;3098;42.678;23.364;2023-07-16T13:23:42;16.70;;;9.60;;
6133;SDS011;3098;42.678;23.364;2023-07-16T13:26:10;8.63;;;6.25;;
6133;SDS011;3098;42.678;23.364;2023-07-16T13:28:37;10.93;;;6.88;;
6133;SDS011;3098;42.678;23.364;2023-07-16T13:31:04;12.00;;;5.63;;
6133;SDS011;3098;42.678;23.364;2023-07-16T13:33:32;9.20;;;6.55;;
6133;SDS011;3098;42.678;23.364;2023-07-16T13:36:00;10.05;;;6.30;;
6133;SDS011;3098;42.678;23.364;2023-07-16T13:38:29;13.00;;;7.07;;
6133;SDS011;3098;42.678;23.364;2023-07-16T13:40:56;13.50;;;6.07;;
6133;SDS011;3098;42.678;23.364;2023-07-16T13:43:25;12.20;;;6.32;;
6133;SDS011;3098;42.678;23.364;2023-07-16T13:45:52;10.60;;;6.10;;
6133;SDS011;3098;42.678;23.364;2023-07-16T13:48:19;12.70;;;6.60;;
6133;SDS011;3098;42.678;23.364;2023-07-16T13:50:47;11.13;;;6.07;;
6133;SDS011;3098;42.678;23.364;2023-07-16T13:53:14;9.90;;;6.50;;
6133;SDS011;3098;42.678;23.364;2023-07-16T13:55:41;10.93;;;6.57;;
6133;SDS011;3098;42.678;23.364;2023-07-16T13:58:09;12.48;;;6.40;;
6133;SDS011;3098;42.678;23.364;2023-07-16T14:00:37;9.13;;;6.43;;
6133;SDS011;3098;42.678;23.364;2023-07-16T14:03:04;17.05;;;6.78;;
6133;SDS011;3098;42.678;23.364;2023-07-16T14:05:31;11.23;;;6.78;;
6133;SDS011;3098;42.678;23.364;2023-07-16T14:08:03;11.82;;;6.50;;
6133;SDS011;3098;42.678;23.364;2023-07-16T14:10:31;11.05;;;6.95;;
6133;SDS011;3098;42.678;23.364;2023-07-16T14:12:58;11.10;;;7.07;;
6133;SDS011;3098;42.678;23.364;2023-07-16T14:15:25;11.52;;;7.28;;
6133;SDS011;3098;42.678;23.364;2023-07-16T14:17:53;8.38;;;6.18;;
6133;SDS011;3098;42.678;23.364;2023-07-16T14:20:20;12.23;;;6.97;;
6133;SDS011;3098;42.678;23.364;2023-07-16T14:22:47;9.70;;;6.30;;
6133;SDS011;3098;42.678;23.364;2023-07-16T14:25:15;9.63;;;6.40;;
6133;SDS011;3098;42.678;23.364;2023-07-16T14:27:43;12.00;;;6.55;;
6133;SDS011;3098;42.678;23.364;2023-07-16T14:30:10;14.52;;;7.20;;
6133;SDS011;3098;42.678;23.364;2023-07-16T14:32:37;10.82;;;6.50;;
6133;SDS011;3098;42.678;23.364;2023-07-16T14:35:06;11.15;;;6.60;;
6133;SDS011;3098;42.678;23.364;2023-07-16T14:37:33;13.57;;;6.15;;
6133;SDS011;3098;42.678;23.364;2023-07-16T14:40:00;11.90;;;7.25;;
6133;SDS011;3098;42.678;23.364;2023-07-16T14:42:30;10.48;;;7.07;;
6133;SDS011;3098;42.678;23.364;2023-07-16T14:44:57;10.63;;;6.80;;
6133;SDS011;3098;42.678;23.364;2023-07-16T14:47:24;9.60;;;6.72;;
6133;SDS011;3098;42.678;23.364;2023-07-16T14:49:51;8.70;;;6.30;;
6133;SDS011;3098;42.678;23.364;2023-07-16T14:52:20;10.57;;;6.30;;
6133;SDS011;3098;42.678;23.364;2023-07-16T14:54:47;14.18;;;7.25;;
6133;SDS011;3098;42.678;23.364;2023-07-16T14:57:14;9.10;;;6.15;;
6133;SDS011;3098;42.678;23.364;2023-07-16T14:59:42;10.30;;;6.75;;
6133;SDS011;3098;42.678;23.364;2023-07-16T15:02:09;12.02;;;7.50;;